Time;durP1;ratioP1;P1;durP2;ratioP2;P2;SDS_P1;SDS_P2;PMS_P1;PMS_P2;Temp;Humidity;BMP_temperature;BMP_pressure;BME280_temperature;BME280_humidity;BME280_pressure;Samples;Min_cycle;Max_cycle;Signal;HPM_P1;HPM_P2
2022/06/21 00:00:52;;;;;;;0.80;0.80;;;26.50;84.30;;;;;;5016886;28;20049;-57
2022/06/21 00:03:23;;;;;;;0.50;0.50;;;26.50;84.30;;;;;;5008682;28;20069;-57
2022/06/21 00:05:52;;;;;;;0.50;0.50;;;26.50;84.30;;;;;;5034014;28;20067;-57
2022/06/21 00:08:24;;;;;;;0.30;0.30;;;26.50;84.30;;;;;;5056219;28;20045;-59
2022/06/21 00:10:53;;;;;;;0.50;0.50;;;26.50;84.30;;;;;;5070843;28;20075;-57
2022/06/21 00:13:24;;;;;;;2.42;1.20;;;26.50;84.30;;;;;;5067925;28;20044;-57
2022/06/21 00:15:55;;;;;;;0.68;0.68;;;26.50;84.40;;;;;;5058268;28;20049;-57
2022/06/21 00:18:25;;;;;;;0.30;0.30;;;26.50;84.30;;;;;;5059868;28;20427;-55
2022/06/21 00:20:53;;;;;;;1.73;0.93;;;26.50;84.40;;;;;;5061356;28;20055;-59
2022/06/21 00:23:21;;;;;;;;;;;26.50;84.30;;;;;;5071204;28;20057;-55
2022/06/21 00:25:49;;;;;;;1.55;0.77;;;26.50;84.30;;;;;;5070560;28;19924;-59
2022/06/21 00:28:19;;;;;;;0.30;0.30;;;26.50;84.30;;;;;;5050339;28;20048;-59
2022/06/21 00:30:48;;;;;;;1.70;1.00;;;26.50;84.30;;;;;;5057933;28;20415;-57
2022/06/21 00:33:19;;;;;;;0.32;0.32;;;26.50;84.40;;;;;;5072174;28;20535;-59
2022/06/21 00:35:49;;;;;;;0.40;0.40;;;26.50;84.40;;;;;;5057889;28;20423;-58
2022/06/21 00:38:33;;;;;;;1.65;1.00;;;26.50;84.50;;;;;;5052978;28;20049;-57
2022/06/21 00:41:05;;;;;;;0.52;0.40;;;26.50;84.50;;;;;;5067052;28;20045;-58
2022/06/21 00:43:40;;;;;;;0.28;0.28;;;26.50;84.50;;;;;;5056693;28;20064;-56
2022/06/21 00:46:22;;;;;;;1.33;0.68;;;26.50;84.50;;;;;;5059482;28;20057;-59
2022/06/21 00:48:51;;;;;;;0.50;0.50;;;26.50;84.50;;;;;;5052512;28;20040;-58
2022/06/21 00:51:41;;;;;;;0.20;0.20;;;26.50;84.50;;;;;;5068735;28;20045;-55
2022/06/21 00:54:33;;;;;;;0.57;0.57;;;26.50;84.50;;;;;;5054864;28;20048;-59
2022/06/21 00:57:05;;;;;;;0.28;0.25;;;26.50;84.50;;;;;;5050536;28;20053;-56
2022/06/21 00:59:34;;;;;;;1.75;0.75;;;26.40;84.50;;;;;;5061306;28;20045;-59
2022/06/21 01:02:06;;;;;;;0.28;0.28;;;26.40;84.50;;;;;;5062060;28;20048;-54
2022/06/21 01:04:38;;;;;;;0.60;0.60;;;26.40;84.50;;;;;;5056477;28;20444;-56
2022/06/21 01:07:08;;;;;;;0.40;0.40;;;26.40;84.50;;;;;;5050160;28;20052;-58
2022/06/21 01:09:57;;;;;;;0.40;0.40;;;26.40;84.60;;;;;;5055634;28;20538;-59
2022/06/21 01:12:32;;;;;;;0.30;0.30;;;26.40;84.60;;;;;;5070096;28;20494;-56
2022/06/21 01:15:08;;;;;;;0.77;0.77;;;26.40;84.60;;;;;;5051959;28;20496;-55
2022/06/21 01:17:37;;;;;;;0.32;0.32;;;26.40;84.60;;;;;;5060306;28;20049;-59
2022/06/21 01:20:09;;;;;;;3.00;0.80;;;26.40;84.60;;;;;;5068520;28;20056;-56
2022/06/21 01:23:01;;;;;;;0.20;0.20;;;26.40;84.60;;;;;;5053115;28;20061;-56
2022/06/21 01:26:03;;;;;;;0.63;0.63;;;26.40;84.60;;;;;;5064715;28;20064;-58
2022/06/21 01:28:32;;;;;;;0.52;0.52;;;26.40;84.70;;;;;;5020465;28;20215;-58
2022/06/21 01:31:00;;;;;;;0.17;0.17;;;26.40;84.70;;;;;;5065573;28;20507;-57
2022/06/21 01:33:40;;;;;;;0.22;0.22;;;26.30;84.70;;;;;;5050625;28;20051;-55
2022/06/21 01:36:18;;;;;;;2.40;1.15;;;26.30;84.60;;;;;;5055952;28;20421;-58
2022/06/21 01:38:53;;;;;;;0.93;0.45;;;26.30;84.60;;;;;;5051290;28;20067;-55
2022/06/21 01:41:25;;;;;;;0.70;0.55;;;26.30;84.70;;;;;;5064921;28;20057;-57
2022/06/21 01:43:57;;;;;;;0.38;0.38;;;26.30;84.70;;;;;;5053612;28;20489;-55
2022/06/21 01:46:29;;;;;;;1.60;1.05;;;26.30;84.70;;;;;;5052645;28;20105;-58
2022/06/21 01:49:08;;;;;;;0.50;0.50;;;26.30;84.60;;;;;;5061768;28;20056;-56
2022/06/21 01:51:48;;;;;;;0.40;0.40;;;26.30;84.60;;;;;;5050160;28;20059;-63
2022/06/21 01:54:17;;;;;;;0.30;0.30;;;26.30;84.70;;;;;;5058158;28;20047;-57
2022/06/21 01:56:47;;;;;;;0.30;0.30;;;26.30;84.70;;;;;;5065931;28;20072;-58
2022/06/21 01:59:20;;;;;;;0.30;0.30;;;26.30;84.70;;;;;;5052587;28;20064;-56
2022/06/21 02:01:54;;;;;;;0.75;0.32;;;26.30;84.70;;;;;;5051850;28;20508;-55
2022/06/21 02:04:25;;;;;;;0.30;0.30;;;26.30;84.70;;;;;;5051121;28;20508;-56
2022/06/21 02:06:55;;;;;;;0.32;0.32;;;26.30;84.70;;;;;;5052624;28;20440;-57
2022/06/21 02:09:26;;;;;;;0.77;0.77;;;26.30;84.70;;;;;;5050381;28;20262;-60
2022/06/21 02:12:04;;;;;;;0.47;0.47;;;26.30;84.70;;;;;;5068278;28;20053;-58
2022/06/21 02:14:37;;;;;;;0.30;0.30;;;26.30;84.80;;;;;;5062804;28;20055;-57
2022/06/21 02:17:15;;;;;;;0.77;0.60;;;26.30;84.80;;;;;;5060976;28;20361;-57
2022/06/21 02:19:49;;;;;;;0.73;0.68;;;26.30;84.80;;;;;;5064213;28;20060;-57
2022/06/21 02:22:20;;;;;;;0.40;0.40;;;26.30;84.80;;;;;;5068591;28;20057;-54
2022/06/21 02:24:50;;;;;;;0.30;0.30;;;26.30;84.80;;;;;;5052742;28;21400;-56
2022/06/21 02:27:21;;;;;;;0.52;0.52;;;26.20;84.70;;;;;;5061345;28;20049;-55
2022/06/21 02:29:51;;;;;;;0.32;0.32;;;26.30;84.80;;;;;;5063550;28;20045;-58
2022/06/21 02:32:40;;;;;;;0.43;0.43;;;26.30;84.80;;;;;;5060523;28;20049;-58
2022/06/21 02:35:34;;;;;;;0.50;0.50;;;26.30;84.80;;;;;;5060606;28;20044;-58
2022/06/21 02:38:06;;;;;;;0.70;0.70;;;26.20;84.80;;;;;;5049934;28;20068;-59
2022/06/21 02:40:44;;;;;;;0.30;0.30;;;26.20;84.80;;;;;;5052170;28;20499;-57
2022/06/21 02:43:34;;;;;;;1.48;1.05;;;26.20;84.80;;;;;;5058050;28;20496;-58
2022/06/21 02:46:08;;;;;;;0.30;0.30;;;26.20;84.80;;;;;;5060589;28;20049;-56
2022/06/21 02:49:11;;;;;;;0.40;0.40;;;26.20;84.80;;;;;;5049034;28;20049;-56
2022/06/21 02:51:56;;;;;;;1.40;0.82;;;26.20;84.90;;;;;;5035431;28;20060;-57
2022/06/21 02:54:26;;;;;;;0.30;0.30;;;26.20;84.80;;;;;;5050651;28;20053;-58
2022/06/21 02:57:26;;;;;;;1.48;1.02;;;26.20;84.90;;;;;;5058770;28;20048;-58
2022/06/21 02:59:56;;;;;;;0.57;0.57;;;26.20;84.90;;;;;;5060494;28;20061;-54
2022/06/21 03:02:26;;;;;;;0.28;0.28;;;26.20;84.90;;;;;;5061365;28;20067;-58
2022/06/21 03:05:04;;;;;;;0.20;0.20;;;26.20;85.50;;;;;;5058148;28;20044;-58
2022/06/21 03:07:41;;;;;;;0.52;0.52;;;26.10;84.90;;;;;;5065357;28;20044;-58
2022/06/21 03:10:21;;;;;;;1.67;0.85;;;26.10;84.90;;;;;;5059341;28;20060;-58
2022/06/21 03:12:55;;;;;;;0.50;0.50;;;26.10;84.90;;;;;;5061950;28;20404;-56
2022/06/21 03:15:22;;;;;;;0.40;0.40;;;26.10;84.90;;;;;;5060723;28;20047;-57
2022/06/21 03:17:58;;;;;;;0.38;0.38;;;26.10;84.90;;;;;;5066887;28;20048;-55
2022/06/21 03:20:25;;;;;;;2.35;0.50;;;26.10;85.00;;;;;;5046165;28;20045;-54
2022/06/21 03:22:54;;;;;;;0.50;0.50;;;26.10;84.90;;;;;;5048590;28;20519;-58
2022/06/21 03:25:37;;;;;;;0.55;0.55;;;26.10;84.90;;;;;;5056848;28;20052;-55
2022/06/21 03:28:33;;;;;;;0.73;0.73;;;26.10;84.90;;;;;;5060134;28;20421;-56
2022/06/21 03:31:26;;;;;;;0.73;0.57;;;26.10;84.90;;;;;;5061854;28;20041;-57
2022/06/21 03:34:00;;;;;;;0.95;0.60;;;26.10;84.90;;;;;;5062672;28;20055;-58
2022/06/21 03:36:29;;;;;;;0.50;0.50;;;26.10;84.90;;;;;;5055706;28;20057;-57
2022/06/21 03:39:17;;;;;;;1.25;0.65;;;26.10;85.00;;;;;;5048583;28;20530;-56
2022/06/21 03:41:46;;;;;;;0.98;0.63;;;26.10;84.90;;;;;;5054579;28;20063;-59
2022/06/21 03:44:25;;;;;;;1.58;0.77;;;26.10;84.90;;;;;;5034363;28;20045;-58
2022/06/21 03:47:14;;;;;;;0.20;0.20;;;26.10;84.90;;;;;;5052879;28;20060;-58
2022/06/21 03:50:07;;;;;;;0.22;0.22;;;26.00;84.90;;;;;;5056132;28;20056;-56
2022/06/21 03:52:55;;;;;;;1.38;0.55;;;26.00;84.90;;;;;;5051807;28;20048;-55
2022/06/21 03:55:43;;;;;;;0.57;0.57;;;26.00;84.90;;;;;;5054639;28;20080;-56
2022/06/21 03:58:28;;;;;;;0.60;0.60;;;26.00;84.90;;;;;;5052550;28;20045;-56
2022/06/21 04:01:07;;;;;;;2.60;1.42;;;26.00;84.90;;;;;;5066831;28;20051;-58
2022/06/21 04:03:43;;;;;;;0.20;0.20;;;26.10;85.00;;;;;;5057769;28;20566;-57
2022/06/21 04:06:38;;;;;;;0.38;0.38;;;26.00;84.90;;;;;;5034317;28;20052;-56
2022/06/21 04:09:18;;;;;;;0.30;0.30;;;26.00;84.90;;;;;;5055373;28;20048;-58
2022/06/21 04:11:58;;;;;;;0.50;0.50;;;26.00;84.90;;;;;;5067406;28;20044;-59
2022/06/21 04:14:32;;;;;;;0.52;0.52;;;26.00;84.90;;;;;;5055965;28;20073;-55
2022/06/21 04:17:14;;;;;;;0.30;0.30;;;26.00;84.90;;;;;;5052216;28;20045;-57
2022/06/21 04:20:00;;;;;;;0.50;0.50;;;26.00;84.90;;;;;;5047573;28;20044;-58
2022/06/21 04:22:33;;;;;;;0.50;0.50;;;26.00;84.90;;;;;;5053668;28;20397;-55
2022/06/21 04:25:11;;;;;;;1.75;1.20;;;26.00;84.90;;;;;;5053169;28;20056;-59
2022/06/21 04:27:47;;;;;;;1.05;0.50;;;26.00;84.90;;;;;;5057058;28;20041;-57
2022/06/21 04:30:25;;;;;;;0.30;0.30;;;26.00;85.00;;;;;;5070191;28;20443;-59
2022/06/21 04:33:06;;;;;;;0.22;0.22;;;26.00;85.00;;;;;;5064216;28;20051;-55
2022/06/21 04:35:40;;;;;;;0.50;0.50;;;26.00;85.00;;;;;;5052145;28;20053;-58
2022/06/21 04:38:16;;;;;;;0.35;0.35;;;26.00;84.90;;;;;;5061011;28;20052;-55
2022/06/21 04:40:57;;;;;;;0.40;0.40;;;26.00;84.90;;;;;;5056963;28;20048;-59
2022/06/21 04:43:44;;;;;;;0.50;0.50;;;26.10;84.90;;;;;;5070937;28;20494;-56
2022/06/21 04:46:20;;;;;;;0.25;0.25;;;26.10;84.80;;;;;;5070097;28;20060;-56
2022/06/21 04:48:52;;;;;;;0.40;0.40;;;26.10;84.60;;;;;;5060047;28;20052;-59
2022/06/21 04:51:35;;;;;;;0.40;0.40;;;26.20;84.60;;;;;;5052764;28;20059;-59
2022/06/21 04:54:06;;;;;;;0.20;0.20;;;26.10;84.60;;;;;;5058948;28;20444;-58
2022/06/21 04:56:59;;;;;;;0.50;0.50;;;26.10;84.70;;;;;;5051944;28;20521;-59
2022/06/21 04:59:55;;;;;;;0.20;0.20;;;26.10;84.70;;;;;;5059111;28;20056;-59
2022/06/21 05:02:31;;;;;;;0.45;0.45;;;26.10;84.70;;;;;;5047703;28;20093;-59
2022/06/21 05:05:03;;;;;;;0.40;0.40;;;26.10;84.80;;;;;;5055876;28;20048;-56
2022/06/21 05:07:34;;;;;;;2.45;1.33;;;26.10;84.70;;;;;;5048880;28;20053;-58
2022/06/21 05:10:03;;;;;;;6.50;0.52;;;26.10;84.70;;;;;;5062407;28;20056;-58
2022/06/21 05:12:34;;;;;;;0.50;0.50;;;26.10;85.30;;;;;;5068051;28;20044;-56
2022/06/21 05:15:09;;;;;;;0.30;0.30;;;26.10;84.70;;;;;;5065624;28;20044;-56
2022/06/21 05:17:39;;;;;;;0.52;0.52;;;26.10;84.60;;;;;;5059077;28;20052;-59
2022/06/21 05:20:15;;;;;;;0.82;0.82;;;26.10;84.60;;;;;;5055583;28;20037;-59
2022/06/21 05:22:48;;;;;;;0.28;0.28;;;26.10;84.70;;;;;;5056492;28;20056;-57
2022/06/21 05:25:33;;;;;;;0.63;0.63;;;26.10;84.70;;;;;;5061181;28;20056;-56
2022/06/21 05:28:22;;;;;;;1.17;0.73;;;26.10;84.60;;;;;;5055648;28;20057;-57
2022/06/21 05:30:49;;;;;;;0.45;0.45;;;26.10;85.20;;;;;;5069750;28;20051;-58
2022/06/21 05:33:19;;;;;;;0.50;0.50;;;26.10;84.70;;;;;;5084481;28;20459;-57
2022/06/21 05:35:47;;;;;;;3.92;1.20;;;26.00;84.60;;;;;;5068523;28;20350;-60
2022/06/21 05:38:17;;;;;;;;;;;26.10;84.60;;;;;;5067787;28;20057;-57
2022/06/21 05:40:57;;;;;;;0.57;0.57;;;26.10;84.60;;;;;;5071040;28;19943;-60
2022/06/21 05:43:35;;;;;;;0.73;0.73;;;26.10;84.50;;;;;;5062844;28;20036;-58
2022/06/21 05:46:09;;;;;;;0.20;0.20;;;26.10;84.50;;;;;;5072373;28;20048;-59
2022/06/21 05:48:40;;;;;;;1.27;1.05;;;26.10;84.40;;;;;;5059826;28;20056;-57
2022/06/21 05:51:13;;;;;;;0.20;0.20;;;26.10;84.50;;;;;;5060828;28;20041;-58
2022/06/21 05:53:57;;;;;;;0.20;0.20;;;26.10;84.50;;;;;;5057531;28;20614;-57
2022/06/21 05:56:27;;;;;;;0.40;0.40;;;26.10;84.50;;;;;;5070978;28;20060;-58
2022/06/21 05:59:01;;;;;;;0.28;0.28;;;26.10;84.50;;;;;;5061243;28;20480;-55
2022/06/21 06:01:44;;;;;;;0.38;0.38;;;26.10;84.50;;;;;;5066531;28;20044;-57
2022/06/21 06:04:32;;;;;;;0.38;0.38;;;26.10;84.50;;;;;;5056413;28;20055;-60
2022/06/21 06:07:01;;;;;;;0.98;0.50;;;26.10;84.60;;;;;;5067906;28;20056;-58
2022/06/21 06:09:35;;;;;;;0.50;0.50;;;26.10;84.60;;;;;;5057132;28;20037;-58
2022/06/21 06:12:30;;;;;;;0.75;0.75;;;26.10;84.60;;;;;;5065083;28;20056;-57
2022/06/21 06:15:06;;;;;;;0.50;0.50;;;26.10;84.60;;;;;;5057030;28;20381;-56
2022/06/21 06:17:47;;;;;;;0.20;0.20;;;26.10;84.60;;;;;;5072018;28;20052;-57
2022/06/21 06:20:29;;;;;;;0.30;0.30;;;26.10;84.60;;;;;;5054670;28;20496;-58
2022/06/21 06:23:06;;;;;;;0.35;0.35;;;26.10;84.60;;;;;;5054395;28;20048;-58
2022/06/21 06:25:52;;;;;;;0.53;0.53;;;26.10;84.50;;;;;;5064216;28;20059;-58
2022/06/21 06:28:19;;;;;;;0.50;0.50;;;26.10;84.40;;;;;;5051412;28;20053;-57
2022/06/21 06:30:51;;;;;;;0.30;0.30;;;26.10;84.40;;;;;;5057365;28;20041;-59
2022/06/21 06:33:24;;;;;;;0.52;0.52;;;26.10;84.50;;;;;;5061841;28;20048;-58
2022/06/21 06:35:55;;;;;;;0.45;0.45;;;26.10;84.50;;;;;;5053491;28;20049;-58
2022/06/21 06:38:22;;;;;;;0.52;0.52;;;26.10;84.60;;;;;;5049674;28;20057;-60
2022/06/21 06:41:21;;;;;;;0.32;0.32;;;26.10;84.60;;;;;;5061736;28;20536;-59
2022/06/21 06:43:53;;;;;;;0.30;0.30;;;26.10;84.50;;;;;;5048529;28;20044;-57
2022/06/21 06:46:31;;;;;;;0.22;0.22;;;26.10;84.50;;;;;;5059743;28;20053;-59
2022/06/21 06:49:37;;;;;;;0.30;0.30;;;26.10;84.50;;;;;;5060692;28;20135;-59
2022/06/21 06:52:21;;;;;;;0.30;0.30;;;26.20;84.60;;;;;;5061943;28;20049;-62
2022/06/21 06:55:15;;;;;;;0.20;0.20;;;26.20;84.50;;;;;;5072164;28;20220;-57
2022/06/21 06:57:53;;;;;;;0.40;0.40;;;26.20;84.50;;;;;;5025806;28;20057;-59
2022/06/21 07:00:22;;;;;;;;;;;26.20;84.40;;;;;;5061785;28;20056;-59
2022/06/21 07:02:56;;;;;;;0.30;0.30;;;26.20;84.40;;;;;;5069478;28;19933;-56
2022/06/21 07:05:34;;;;;;;0.40;0.40;;;26.20;84.40;;;;;;5068410;28;20068;-57
2022/06/21 07:08:29;;;;;;;0.30;0.30;;;26.20;84.50;;;;;;5077476;28;20410;-57
2022/06/21 07:10:59;;;;;;;0.30;0.30;;;26.20;84.40;;;;;;5061768;28;20060;-57
2022/06/21 07:13:27;;;;;;;0.40;0.40;;;26.20;84.50;;;;;;5051189;28;20170;-56
2022/06/21 07:16:02;;;;;;;0.20;0.20;;;26.20;84.50;;;;;;5061010;28;20124;-56
2022/06/21 07:18:34;;;;;;;0.30;0.30;;;26.20;84.50;;;;;;5043445;28;20060;-59
2022/06/21 07:21:05;;;;;;;0.52;0.52;;;26.20;84.50;;;;;;5065057;28;20041;-60
2022/06/21 07:23:32;;;;;;;0.20;0.20;;;26.20;84.50;;;;;;5049594;28;20424;-58
2022/06/21 07:26:14;;;;;;;0.57;0.57;;;26.20;84.60;;;;;;5064417;28;20072;-59
2022/06/21 07:28:51;;;;;;;3.03;0.50;;;26.20;84.60;;;;;;5060154;28;20049;-58
2022/06/21 07:31:31;;;;;;;0.32;0.30;;;26.20;84.60;;;;;;5054071;28;20049;-55
2022/06/21 07:34:14;;;;;;;0.20;0.20;;;26.20;84.60;;;;;;5058211;28;20049;-57
2022/06/21 07:36:49;;;;;;;0.30;0.30;;;26.20;84.60;;;;;;5060565;28;20041;-58
2022/06/21 07:39:47;;;;;;;0.30;0.30;;;26.20;84.60;;;;;;5052458;28;20057;-58
2022/06/21 07:42:30;;;;;;;1.65;1.30;;;26.20;84.60;;;;;;5045256;28;20057;-57
2022/06/21 07:45:06;;;;;;;0.32;0.32;;;26.20;84.60;;;;;;5055386;28;20162;-58
2022/06/21 07:47:42;;;;;;;0.70;0.43;;;26.30;84.70;;;;;;5050448;28;20049;-57
2022/06/21 07:50:39;;;;;;;0.30;0.30;;;26.30;84.70;;;;;;5052097;28;20112;-59
2022/06/21 07:53:19;;;;;;;0.28;0.28;;;26.30;84.70;;;;;;5019162;28;20056;-58
2022/06/21 07:55:54;;;;;;;0.38;0.38;;;26.30;84.70;;;;;;5062757;28;20070;-61
2022/06/21 07:58:32;;;;;;;0.20;0.20;;;26.30;84.70;;;;;;5049128;28;20405;-58
2022/06/21 08:07:07;;;;;;;0.63;0.63;;;26.30;84.70;;;;;;5051056;28;20052;-59
2022/06/21 08:09:56;;;;;;;0.30;0.30;;;26.30;84.70;;;;;;5059158;28;20052;-58
2022/06/21 08:12:24;;;;;;;0.35;0.35;;;26.30;84.80;;;;;;5066606;28;20048;-57
2022/06/21 08:14:53;;;;;;;0.50;0.50;;;26.30;84.80;;;;;;5063034;28;20040;-57
2022/06/21 08:17:47;;;;;;;0.30;0.30;;;26.30;84.80;;;;;;5049430;28;20049;-56
2022/06/21 08:20:25;;;;;;;0.50;0.50;;;26.30;84.80;;;;;;5040081;28;20090;-57
2022/06/21 08:23:23;;;;;;;0.25;0.25;;;26.30;84.80;;;;;;5050995;28;20045;-60
2022/06/21 08:26:30;;;;;;;0.45;0.45;;;26.30;84.80;;;;;;5032009;28;20044;-55
2022/06/21 08:29:14;;;;;;;0.40;0.40;;;26.30;84.80;;;;;;5053504;28;20059;-59
2022/06/21 08:31:47;;;;;;;2.25;1.58;;;26.30;84.80;;;;;;5059503;28;20479;-59
2022/06/21 08:34:38;;;;;;;1.38;1.27;;;26.30;84.80;;;;;;5060453;28;20500;-60
2022/06/21 08:37:27;;;;;;;1.25;0.68;;;26.30;84.70;;;;;;5055115;28;20052;-61
2022/06/21 08:40:03;;;;;;;0.40;0.40;;;26.30;84.80;;;;;;5069980;28;20063;-59
2022/06/21 08:43:05;;;;;;;0.45;0.45;;;26.40;84.80;;;;;;5075575;28;20048;-59
2022/06/21 08:45:48;;;;;;;0.20;0.20;;;26.30;84.80;;;;;;5063065;28;20127;-59
2022/06/21 08:48:37;;;;;;;0.20;0.20;;;26.30;84.80;;;;;;5054525;28;20045;-59
2022/06/21 08:51:22;;;;;;;0.38;0.35;;;26.30;84.80;;;;;;5071557;28;20041;-60
2022/06/21 08:54:26;;;;;;;0.38;0.38;;;26.30;84.80;;;;;;5075728;28;20044;-61
2022/06/21 08:57:05;;;;;;;0.20;0.20;;;26.30;84.90;;;;;;5062297;28;20044;-58
2022/06/21 08:59:51;;;;;;;0.35;0.35;;;26.30;84.80;;;;;;5060654;28;20056;-56
2022/06/21 09:02:22;;;;;;;0.20;0.20;;;26.30;84.80;;;;;;5058884;28;20056;-56
2022/06/21 09:05:20;;;;;;;0.30;0.30;;;26.30;84.80;;;;;;5065613;28;20045;-57
2022/06/21 09:08:03;;;;;;;0.50;0.50;;;26.30;84.70;;;;;;5056817;28;20262;-59
2022/06/21 09:10:58;;;;;;;0.47;0.47;;;26.30;84.70;;;;;;5068965;28;20526;-58
2022/06/21 09:13:25;;;;;;;0.40;0.40;;;26.30;84.70;;;;;;5061965;28;20052;-58
2022/06/21 09:16:02;;;;;;;0.30;0.30;;;26.30;84.70;;;;;;5067540;28;20603;-58
2022/06/21 09:18:41;;;;;;;0.30;0.30;;;26.30;84.70;;;;;;5058625;28;20048;-57
2022/06/21 09:21:59;;;;;;;0.30;0.30;;;26.30;84.70;;;;;;5053343;28;20128;-57
2022/06/21 09:24:40;;;;;;;0.20;0.20;;;26.30;84.70;;;;;;5010184;28;20068;-60
2022/06/21 09:27:14;;;;;;;0.30;0.30;;;26.30;84.70;;;;;;5054503;28;20053;-58
2022/06/21 09:30:07;;;;;;;0.20;0.20;;;26.30;84.70;;;;;;5052509;28;20048;-60
2022/06/21 09:32:47;;;;;;;0.65;0.50;;;26.30;84.70;;;;;;5079522;28;20056;-59
2022/06/21 09:35:40;;;;;;;0.70;0.70;;;26.30;84.70;;;;;;5053847;28;20040;-62
2022/06/21 09:38:35;;;;;;;0.20;0.20;;;26.30;84.70;;;;;;5052552;28;20440;-60
2022/06/21 09:41:15;;;;;;;1.55;0.55;;;26.30;84.70;;;;;;5059642;28;20044;-58
2022/06/21 09:43:46;;;;;;;0.40;0.40;;;26.30;84.70;;;;;;5053515;28;20048;-59
2022/06/21 09:46:56;;;;;;;0.20;0.20;;;26.30;84.70;;;;;;5062736;28;20067;-59
2022/06/21 09:49:44;;;;;;;0.52;0.52;;;26.40;84.70;;;;;;5050800;28;20071;-57
2022/06/21 09:52:30;;;;;;;0.40;0.40;;;26.30;84.70;;;;;;5047306;28;20059;-58
2022/06/21 09:55:10;;;;;;;0.35;0.35;;;26.30;84.70;;;;;;5050652;28;20466;-58
2022/06/21 09:58:08;;;;;;;0.22;0.22;;;26.30;84.70;;;;;;5052584;28;20167;-57
2022/06/21 10:00:43;;;;;;;0.30;0.30;;;26.40;84.70;;;;;;5053276;28;20041;-54
2022/06/21 10:03:29;;;;;;;0.60;0.60;;;26.30;84.70;;;;;;5053739;28;20426;-56
2022/06/21 10:06:20;;;;;;;0.30;0.30;;;26.30;84.70;;;;;;5054154;28;20045;-60
2022/06/21 10:09:26;;;;;;;0.60;0.60;;;26.40;84.70;;;;;;5069430;28;20056;-60
2022/06/21 10:12:13;;;;;;;0.40;0.40;;;26.40;84.70;;;;;;5052843;28;20047;-62
2022/06/21 10:14:50;;;;;;;;;;;26.40;84.70;;;;;;5067067;28;20079;-57
2022/06/21 10:17:42;;;;;;;0.57;0.50;;;26.40;84.20;;;;;;5063636;28;20324;-59
2022/06/21 10:20:31;;;;;;;0.30;0.30;;;26.40;84.60;;;;;;5057771;28;20048;-59
2022/06/21 10:23:04;;;;;;;0.55;0.55;;;26.40;84.60;;;;;;5048712;28;20063;-56
2022/06/21 10:26:09;;;;;;;0.40;0.40;;;26.40;84.60;;;;;;5053097;28;20056;-60
2022/06/21 10:29:13;;;;;;;0.80;0.80;;;26.40;84.70;;;;;;5005888;28;20088;-59
2022/06/21 10:31:56;;;;;;;0.20;0.20;;;26.40;84.70;;;;;;5053779;28;20036;-54
2022/06/21 10:34:38;;;;;;;0.30;0.30;;;26.30;84.70;;;;;;5053757;28;20074;-58
2022/06/21 10:37:24;;;;;;;0.30;0.30;;;26.40;84.70;;;;;;5052996;28;20052;-57
2022/06/21 10:40:06;;;;;;;0.20;0.20;;;26.40;84.80;;;;;;5056311;28;20045;-64
2022/06/21 10:42:48;;;;;;;0.65;0.50;;;26.40;84.70;;;;;;5050712;28;20045;-57
2022/06/21 10:45:41;;;;;;;0.40;0.40;;;26.40;84.70;;;;;;5051181;28;20073;-59
2022/06/21 10:48:08;;;;;;;2.42;0.73;;;26.50;84.70;;;;;;5049059;28;20048;-59
2022/06/21 10:51:10;;;;;;;0.20;0.20;;;26.50;84.70;;;;;;5063510;28;20075;-63
2022/06/21 10:53:52;;;;;;;0.20;0.20;;;26.50;84.60;;;;;;5052928;28;20052;-58
2022/06/21 10:59:21;;;;;;;0.20;0.20;;;26.40;84.70;;;;;;5065364;28;20059;-64
2022/06/21 11:02:15;;;;;;;0.20;0.20;;;26.50;84.70;;;;;;5068810;28;20061;-64
2022/06/21 11:05:16;;;;;;;0.20;0.20;;;26.40;84.60;;;;;;5067491;28;20424;-60
2022/06/21 11:08:07;;;;;;;0.20;0.20;;;26.50;84.70;;;;;;5052225;28;20041;-59
2022/06/21 11:11:10;;;;;;;1.15;0.68;;;26.50;84.80;;;;;;5065848;28;20045;-59
2022/06/21 11:14:02;;;;;;;0.40;0.40;;;26.40;84.60;;;;;;5058280;28;20495;-59
2022/06/21 11:17:08;;;;;;;0.43;0.43;;;26.40;84.60;;;;;;5048647;28;20056;-57
2022/06/21 11:19:42;;;;;;;0.30;0.30;;;26.40;84.60;;;;;;5049828;28;20041;-56
2022/06/21 11:22:12;;;;;;;0.30;0.30;;;26.40;84.60;;;;;;5048097;28;20048;-57
2022/06/21 11:25:00;;;;;;;0.22;0.22;;;26.40;84.60;;;;;;5048187;28;20496;-58
2022/06/21 11:27:39;;;;;;;0.47;0.47;;;26.40;84.60;;;;;;5048687;28;20044;-55
2022/06/21 11:30:15;;;;;;;0.60;0.60;;;26.40;84.70;;;;;;5048593;28;20052;-63
2022/06/21 11:32:42;;;;;;;0.40;0.40;;;26.40;84.70;;;;;;5056592;28;20408;-56
2022/06/21 11:35:26;;;;;;;0.75;0.75;;;26.40;84.70;;;;;;5030885;28;20057;-56
2022/06/21 11:38:33;;;;;;;0.32;0.32;;;26.40;84.70;;;;;;5058067;28;20075;-58
2022/06/21 11:41:00;;;;;;;;;;;26.40;84.60;;;;;;5058890;28;20048;-56
2022/06/21 11:43:42;;;;;;;0.30;0.30;;;26.40;84.60;;;;;;5052187;28;19920;-60
2022/06/21 11:46:33;;;;;;;0.40;0.40;;;26.40;84.60;;;;;;5050600;28;20060;-60
2022/06/21 11:49:15;;;;;;;0.40;0.40;;;26.40;84.50;;;;;;5081710;28;20053;-60
2022/06/21 11:52:03;;;;;;;0.47;0.47;;;26.40;84.50;;;;;;5055254;28;20307;-59
2022/06/21 11:54:42;;;;;;;0.25;0.25;;;26.40;84.60;;;;;;5056485;28;20075;-60
2022/06/21 11:57:31;;;;;;;0.40;0.40;;;26.40;84.50;;;;;;5054760;28;20309;-58
2022/06/21 12:00:15;;;;;;;0.50;0.50;;;26.40;84.50;;;;;;5059292;28;20048;-59
2022/06/21 12:03:05;;;;;;;0.30;0.30;;;26.40;84.50;;;;;;5062339;28;20052;-60
2022/06/21 12:05:39;;;;;;;0.65;0.65;;;26.40;84.50;;;;;;5062956;28;20048;-60
2022/06/21 12:08:13;;;;;;;0.30;0.30;;;26.40;84.50;;;;;;5052711;28;20045;-62
2022/06/21 12:10:57;;;;;;;0.20;0.20;;;26.40;84.50;;;;;;5064862;28;20380;-61
2022/06/21 12:13:35;;;;;;;1.08;0.40;;;26.40;84.40;;;;;;5056909;28;20485;-60
2022/06/21 12:16:18;;;;;;;0.30;0.30;;;26.40;84.60;;;;;;5066638;28;20041;-61
2022/06/21 12:18:51;;;;;;;0.30;0.30;;;26.40;84.50;;;;;;5062280;28;20052;-61
2022/06/21 12:21:26;;;;;;;0.20;0.20;;;26.40;84.50;;;;;;5066242;28;20128;-59
2022/06/21 12:23:57;;;;;;;0.47;0.47;;;26.40;84.70;;;;;;5055463;28;20052;-58
2022/06/21 12:26:27;;;;;;;0.50;0.50;;;26.40;84.80;;;;;;5064901;28;20499;-54
2022/06/21 12:28:58;;;;;;;0.40;0.40;;;26.40;84.60;;;;;;5054971;28;20044;-57
2022/06/21 12:31:31;;;;;;;0.30;0.30;;;26.40;84.50;;;;;;5075173;28;20047;-55
2022/06/21 12:34:09;;;;;;;0.28;0.28;;;26.50;84.60;;;;;;5053474;28;20052;-59
2022/06/21 12:36:51;;;;;;;0.70;0.70;;;26.50;84.70;;;;;;5053326;28;20045;-59
2022/06/21 12:39:35;;;;;;;0.40;0.40;;;26.50;84.60;;;;;;5054707;28;20060;-58
2022/06/21 12:42:18;;;;;;;0.35;0.35;;;26.50;84.60;;;;;;5046996;28;20731;-63
2022/06/21 12:45:20;;;;;;;0.30;0.30;;;26.50;84.50;;;;;;5051147;28;20068;-54
2022/06/21 12:48:12;;;;;;;0.45;0.45;;;26.50;84.60;;;;;;5051039;28;20094;-57
2022/06/21 12:50:59;;;;;;;0.20;0.20;;;26.50;84.40;;;;;;5058412;28;20072;-57
2022/06/21 12:53:40;;;;;;;0.30;0.30;;;26.50;84.40;;;;;;5050681;28;20064;-62
2022/06/21 12:56:13;;;;;;;0.38;0.38;;;26.60;84.40;;;;;;5069341;28;20040;-55
2022/06/21 12:59:08;;;;;;;0.20;0.20;;;26.60;84.20;;;;;;5049918;28;20060;-57
2022/06/21 13:01:51;;;;;;;0.30;0.30;;;26.60;84.20;;;;;;5064018;28;20045;-61
2022/06/21 13:04:38;;;;;;;5.68;0.60;;;26.60;84.20;;;;;;5049604;28;20060;-56
2022/06/21 13:07:17;;;;;;;0.30;0.30;;;26.60;84.20;;;;;;5056599;28;20057;-55
2022/06/21 13:10:19;;;;;;;0.50;0.50;;;26.60;84.20;;;;;;5052812;28;20040;-57
2022/06/21 13:12:59;;;;;;;0.20;0.20;;;26.60;84.20;;;;;;5007355;28;20056;-61
2022/06/21 13:15:54;;;;;;;1.15;0.85;;;26.70;84.20;;;;;;5059040;28;20045;-61
2022/06/21 13:18:34;;;;;;;0.20;0.20;;;26.70;84.10;;;;;;5059438;28;20522;-59
2022/06/21 13:21:30;;;;;;;0.40;0.40;;;26.70;84.00;;;;;;5068900;28;20045;-56
2022/06/21 13:24:27;;;;;;;0.20;0.20;;;26.80;84.00;;;;;;5052216;28;20048;-57
2022/06/21 13:27:13;;;;;;;0.28;0.28;;;26.80;83.90;;;;;;5058522;28;20053;-57
2022/06/21 13:30:19;;;;;;;0.23;0.23;;;26.80;83.90;;;;;;5067245;28;20086;-57
2022/06/21 13:32:49;;;;;;;0.20;0.20;;;26.80;83.90;;;;;;5068223;28;20314;-54
2022/06/21 13:35:39;;;;;;;0.52;0.52;;;26.80;83.90;;;;;;5056971;28;20056;-64
2022/06/21 13:38:18;;;;;;;0.30;0.30;;;26.80;83.90;;;;;;5054731;28;20068;-59
2022/06/21 13:40:55;;;;;;;0.30;0.30;;;26.80;83.90;;;;;;5048593;28;20399;-63
2022/06/21 13:43:41;;;;;;;1.38;0.98;;;26.80;84.00;;;;;;5062097;28;20440;-59
2022/06/21 13:46:14;;;;;;;0.20;0.20;;;26.80;84.00;;;;;;5066496;28;20579;-59
2022/06/21 13:48:48;;;;;;;0.28;0.28;;;26.80;83.90;;;;;;5053908;28;20136;-63
2022/06/21 13:51:15;;;;;;;0.45;0.45;;;26.90;83.90;;;;;;5070252;28;20060;-57
2022/06/21 13:54:08;;;;;;;0.30;0.30;;;26.90;83.70;;;;;;5057584;28;20056;-62
2022/06/21 13:56:48;;;;;;;0.30;0.30;;;26.90;83.60;;;;;;5045227;28;20053;-62
2022/06/21 13:59:24;;;;;;;0.50;0.50;;;27.00;83.60;;;;;;5059618;28;20060;-62
2022/06/21 14:02:03;;;;;;;0.50;0.50;;;27.10;83.40;;;;;;5034624;28;20075;-63
2022/06/21 14:04:43;;;;;;;0.55;0.50;;;27.10;83.40;;;;;;5067653;28;20057;-61